sensor_id;sensor_type;location;lat;lon;timestamp;P1;durP1;ratioP1;P2;durP2;ratioP2
82415;SDS011;72058;47.782;10.618;2023-08-31T00:02:10;3.95;;;3.58;;
82415;SDS011;72058;47.782;10.618;2023-08-31T00:04:36;4.70;;;4.00;;
82415;SDS011;72058;47.782;10.618;2023-08-31T00:07:02;5.38;;;4.15;;
82415;SDS011;72058;47.782;10.618;2023-08-31T00:09:27;5.43;;;4.15;;
82415;SDS011;72058;47.782;10.618;2023-08-31T00:11:54;4.72;;;4.03;;
82415;SDS011;72058;47.782;10.618;2023-08-31T00:14:21;4.70;;;4.03;;
82415;SDS011;72058;47.782;10.618;2023-08-31T00:16:47;4.25;;;3.85;;
82415;SDS011;72058;47.782;10.618;2023-08-31T00:19:13;4.50;;;4.13;;
82415;SDS011;72058;47.782;10.618;2023-08-31T00:21:39;4.53;;;3.80;;
82415;SDS011;72058;47.782;10.618;2023-08-31T00:24:05;4.88;;;4.18;;
82415;SDS011;72058;47.782;10.618;2023-08-31T00:26:30;4.72;;;4.32;;
82415;SDS011;72058;47.782;10.618;2023-08-31T00:28:56;4.55;;;3.60;;
82415;SDS011;72058;47.782;10.618;2023-08-31T00:31:23;3.90;;;3.50;;
82415;SDS011;72058;47.782;10.618;2023-08-31T00:33:48;4.53;;;4.13;;
82415;SDS011;72058;47.782;10.618;2023-08-31T00:36:14;3.85;;;3.55;;
82415;SDS011;72058;47.782;10.618;2023-08-31T00:38:40;4.03;;;3.63;;
82415;SDS011;72058;47.782;10.618;2023-08-31T00:41:05;3.80;;;3.20;;
82415;SDS011;72058;47.782;10.618;2023-08-31T00:43:31;4.30;;;3.88;;
82415;SDS011;72058;47.782;10.618;2023-08-31T00:45:56;3.65;;;3.35;;
82415;SDS011;72058;47.782;10.618;2023-08-31T00:48:23;4.53;;;3.85;;
82415;SDS011;72058;47.782;10.618;2023-08-31T00:50:49;3.42;;;3.13;;
82415;SDS011;72058;47.782;10.618;2023-08-31T00:53:15;3.70;;;3.40;;
82415;SDS011;72058;47.782;10.618;2023-08-31T00:55:42;3.60;;;3.30;;
82415;SDS011;72058;47.782;10.618;2023-08-31T00:58:09;4.15;;;3.70;;
82415;SDS011;72058;47.782;10.618;2023-08-31T01:06:13;3.23;;;2.90;;
82415;SDS011;72058;47.782;10.618;2023-08-31T01:14:07;4.47;;;3.30;;
82415;SDS011;72058;47.782;10.618;2023-08-31T01:16:36;3.78;;;3.42;;
82415;SDS011;72058;47.782;10.618;2023-08-31T01:19:08;3.30;;;3.00;;
82415;SDS011;72058;47.782;10.618;2023-08-31T01:21:50;4.50;;;3.42;;
82415;SDS011;72058;47.782;10.618;2023-08-31T01:24:22;4.60;;;4.10;;
82415;SDS011;72058;47.782;10.618;2023-08-31T01:26:48;3.80;;;3.00;;
82415;SDS011;72058;47.782;10.618;2023-08-31T01:29:13;5.93;;;4.03;;
82415;SDS011;72058;47.782;10.618;2023-08-31T01:31:42;3.80;;;3.47;;
82415;SDS011;72058;47.782;10.618;2023-08-31T01:34:10;3.60;;;3.30;;
82415;SDS011;72058;47.782;10.618;2023-08-31T01:36:36;3.47;;;3.17;;
82415;SDS011;72058;47.782;10.618;2023-08-31T01:39:21;4.47;;;3.78;;
82415;SDS011;72058;47.782;10.618;2023-08-31T01:41:51;4.07;;;3.67;;
82415;SDS011;72058;47.782;10.618;2023-08-31T01:44:21;3.85;;;3.55;;
82415;SDS011;72058;47.782;10.618;2023-08-31T01:46:46;4.45;;;3.70;;
82415;SDS011;72058;47.782;10.618;2023-08-31T01:49:16;4.20;;;3.80;;
82415;SDS011;72058;47.782;10.618;2023-08-31T01:51:41;4.27;;;3.87;;
82415;SDS011;72058;47.782;10.618;2023-08-31T01:54:07;3.47;;;3.17;;
82415;SDS011;72058;47.782;10.618;2023-08-31T01:56:32;3.65;;;3.33;;
82415;SDS011;72058;47.782;10.618;2023-08-31T01:58:57;5.10;;;3.90;;
82415;SDS011;72058;47.782;10.618;2023-08-31T02:01:23;5.35;;;3.95;;
82415;SDS011;72058;47.782;10.618;2023-08-31T02:03:48;4.43;;;3.80;;
82415;SDS011;72058;47.782;10.618;2023-08-31T02:06:13;4.10;;;3.67;;
82415;SDS011;72058;47.782;10.618;2023-08-31T02:08:39;4.67;;;3.53;;
82415;SDS011;72058;47.782;10.618;2023-08-31T02:11:04;4.63;;;3.60;;
82415;SDS011;72058;47.782;10.618;2023-08-31T02:13:30;4.40;;;4.00;;
82415;SDS011;72058;47.782;10.618;2023-08-31T02:15:55;5.85;;;4.07;;
82415;SDS011;72058;47.782;10.618;2023-08-31T02:18:21;4.75;;;3.70;;
82415;SDS011;72058;47.782;10.618;2023-08-31T02:20:46;4.00;;;3.57;;
82415;SDS011;72058;47.782;10.618;2023-08-31T02:23:11;5.93;;;4.55;;
82415;SDS011;72058;47.782;10.618;2023-08-31T02:25:37;5.05;;;4.03;;
82415;SDS011;72058;47.782;10.618;2023-08-31T02:28:03;4.53;;;4.13;;
82415;SDS011;72058;47.782;10.618;2023-08-31T02:30:28;5.15;;;4.55;;
82415;SDS011;72058;47.782;10.618;2023-08-31T02:32:54;5.25;;;4.75;;
82415;SDS011;72058;47.782;10.618;2023-08-31T02:35:19;5.43;;;4.57;;
82415;SDS011;72058;47.782;10.618;2023-08-31T02:37:44;6.00;;;4.30;;
82415;SDS011;72058;47.782;10.618;2023-08-31T02:40:10;7.28;;;4.47;;
82415;SDS011;72058;47.782;10.618;2023-08-31T02:45:02;5.30;;;4.60;;
82415;SDS011;72058;47.782;10.618;2023-08-31T02:47:27;7.25;;;4.50;;
82415;SDS011;72058;47.782;10.618;2023-08-31T02:49:53;5.57;;;4.40;;
82415;SDS011;72058;47.782;10.618;2023-08-31T02:52:18;4.38;;;3.65;;
82415;SDS011;72058;47.782;10.618;2023-08-31T02:54:43;4.78;;;3.58;;
82415;SDS011;72058;47.782;10.618;2023-08-31T02:57:09;3.85;;;3.40;;
82415;SDS011;72058;47.782;10.618;2023-08-31T02:59:34;4.10;;;3.63;;
82415;SDS011;72058;47.782;10.618;2023-08-31T03:02:03;4.65;;;3.33;;
82415;SDS011;72058;47.782;10.618;2023-08-31T03:04:28;3.97;;;3.28;;
82415;SDS011;72058;47.782;10.618;2023-08-31T03:06:54;4.43;;;3.05;;
82415;SDS011;72058;47.782;10.618;2023-08-31T03:09:19;4.50;;;3.72;;
82415;SDS011;72058;47.782;10.618;2023-08-31T03:11:45;4.85;;;4.00;;
82415;SDS011;72058;47.782;10.618;2023-08-31T03:14:11;5.28;;;4.38;;
82415;SDS011;72058;47.782;10.618;2023-08-31T03:16:36;4.87;;;4.40;;
82415;SDS011;72058;47.782;10.618;2023-08-31T03:19:01;5.00;;;4.05;;
82415;SDS011;72058;47.782;10.618;2023-08-31T03:21:27;4.30;;;3.70;;
82415;SDS011;72058;47.782;10.618;2023-08-31T03:23:52;4.57;;;4.07;;
82415;SDS011;72058;47.782;10.618;2023-08-31T03:26:17;3.90;;;3.30;;
82415;SDS011;72058;47.782;10.618;2023-08-31T03:28:43;4.93;;;3.93;;
82415;SDS011;72058;47.782;10.618;2023-08-31T03:31:08;5.05;;;4.03;;
82415;SDS011;72058;47.782;10.618;2023-08-31T03:33:33;5.30;;;4.80;;
82415;SDS011;72058;47.782;10.618;2023-08-31T03:35:59;4.40;;;4.00;;
82415;SDS011;72058;47.782;10.618;2023-08-31T03:38:26;4.82;;;3.95;;
82415;SDS011;72058;47.782;10.618;2023-08-31T03:40:53;4.90;;;3.83;;
82415;SDS011;72058;47.782;10.618;2023-08-31T03:43:22;4.93;;;4.28;;
82415;SDS011;72058;47.782;10.618;2023-08-31T03:45:47;6.75;;;5.18;;
82415;SDS011;72058;47.782;10.618;2023-08-31T03:48:12;5.50;;;4.45;;
82415;SDS011;72058;47.782;10.618;2023-08-31T03:50:38;4.83;;;4.40;;
82415;SDS011;72058;47.782;10.618;2023-08-31T03:53:03;6.20;;;4.63;;
82415;SDS011;72058;47.782;10.618;2023-08-31T03:55:29;6.50;;;4.72;;
82415;SDS011;72058;47.782;10.618;2023-08-31T03:57:54;6.00;;;4.63;;
82415;SDS011;72058;47.782;10.618;2023-08-31T04:00:20;4.97;;;4.50;;
82415;SDS011;72058;47.782;10.618;2023-08-31T04:02:45;5.35;;;4.63;;
82415;SDS011;72058;47.782;10.618;2023-08-31T04:05:10;5.00;;;4.28;;
82415;SDS011;72058;47.782;10.618;2023-08-31T04:07:36;6.10;;;5.10;;
82415;SDS011;72058;47.782;10.618;2023-08-31T04:10:02;5.43;;;4.80;;
82415;SDS011;72058;47.782;10.618;2023-08-31T04:12:28;7.00;;;6.20;;
82415;SDS011;72058;47.782;10.618;2023-08-31T04:14:55;7.22;;;6.50;;
82415;SDS011;72058;47.782;10.618;2023-08-31T04:17:21;6.55;;;5.68;;
82415;SDS011;72058;47.782;10.618;2023-08-31T04:19:46;5.68;;;5.07;;
82415;SDS011;72058;47.782;10.618;2023-08-31T04:22:11;6.07;;;5.30;;
82415;SDS011;72058;47.782;10.618;2023-08-31T04:24:37;5.47;;;4.63;;
82415;SDS011;72058;47.782;10.618;2023-08-31T04:27:02;5.75;;;5.15;;
82415;SDS011;72058;47.782;10.618;2023-08-31T04:29:28;5.63;;;4.38;;
82415;SDS011;72058;47.782;10.618;2023-08-31T04:31:53;6.77;;;5.60;;
82415;SDS011;72058;47.782;10.618;2023-08-31T04:34:19;7.03;;;5.38;;
82415;SDS011;72058;47.782;10.618;2023-08-31T04:36:44;5.72;;;4.95;;
82415;SDS011;72058;47.782;10.618;2023-08-31T04:39:10;7.72;;;5.28;;
82415;SDS011;72058;47.782;10.618;2023-08-31T04:41:36;6.07;;;5.47;;
82415;SDS011;72058;47.782;10.618;2023-08-31T04:44:01;6.82;;;5.10;;
82415;SDS011;72058;47.782;10.618;2023-08-31T04:46:26;5.88;;;4.53;;
82415;SDS011;72058;47.782;10.618;2023-08-31T04:48:52;5.50;;;4.43;;
82415;SDS011;72058;47.782;10.618;2023-08-31T04:51:27;6.70;;;4.55;;
82415;SDS011;72058;47.782;10.618;2023-08-31T04:53:57;5.60;;;4.45;;
82415;SDS011;72058;47.782;10.618;2023-08-31T04:56:23;5.25;;;4.50;;
82415;SDS011;72058;47.782;10.618;2023-08-31T04:58:48;6.93;;;5.22;;
82415;SDS011;72058;47.782;10.618;2023-08-31T05:01:14;5.15;;;4.50;;
82415;SDS011;72058;47.782;10.618;2023-08-31T05:03:39;7.37;;;4.87;;
82415;SDS011;72058;47.782;10.618;2023-08-31T05:06:04;5.47;;;4.83;;
82415;SDS011;72058;47.782;10.618;2023-08-31T05:08:30;5.83;;;5.20;;
82415;SDS011;72058;47.782;10.618;2023-08-31T05:10:55;6.47;;;5.30;;
82415;SDS011;72058;47.782;10.618;2023-08-31T05:13:21;7.72;;;5.88;;
82415;SDS011;72058;47.782;10.618;2023-08-31T05:15:46;7.22;;;6.28;;
82415;SDS011;72058;47.782;10.618;2023-08-31T05:18:12;7.67;;;5.63;;
82415;SDS011;72058;47.782;10.618;2023-08-31T05:20:37;7.43;;;5.60;;
82415;SDS011;72058;47.782;10.618;2023-08-31T05:23:02;8.40;;;6.17;;
82415;SDS011;72058;47.782;10.618;2023-08-31T05:25:28;6.65;;;5.80;;
82415;SDS011;72058;47.782;10.618;2023-08-31T05:27:53;8.80;;;6.05;;
82415;SDS011;72058;47.782;10.618;2023-08-31T05:30:18;9.03;;;6.13;;
82415;SDS011;72058;47.782;10.618;2023-08-31T05:32:44;7.80;;;6.07;;
82415;SDS011;72058;47.782;10.618;2023-08-31T05:35:09;8.20;;;6.88;;
82415;SDS011;72058;47.782;10.618;2023-08-31T05:37:34;9.85;;;7.03;;
82415;SDS011;72058;47.782;10.618;2023-08-31T05:40:01;6.20;;;5.30;;
82415;SDS011;72058;47.782;10.618;2023-08-31T05:42:34;7.00;;;5.82;;
82415;SDS011;72058;47.782;10.618;2023-08-31T05:45:00;6.10;;;5.07;;
82415;SDS011;72058;47.782;10.618;2023-08-31T05:47:25;5.75;;;5.07;;
82415;SDS011;72058;47.782;10.618;2023-08-31T05:49:51;6.90;;;6.28;;
82415;SDS011;72058;47.782;10.618;2023-08-31T05:52:16;6.20;;;5.43;;
82415;SDS011;72058;47.782;10.618;2023-08-31T05:54:41;7.20;;;5.63;;
82415;SDS011;72058;47.782;10.618;2023-08-31T05:57:07;5.78;;;4.72;;
82415;SDS011;72058;47.782;10.618;2023-08-31T05:59:32;5.78;;;5.00;;
82415;SDS011;72058;47.782;10.618;2023-08-31T06:01:57;7.73;;;5.57;;
82415;SDS011;72058;47.782;10.618;2023-08-31T06:04:23;5.80;;;5.20;;
82415;SDS011;72058;47.782;10.618;2023-08-31T06:06:48;5.03;;;4.53;;
82415;SDS011;72058;47.782;10.618;2023-08-31T06:09:13;6.72;;;4.43;;
82415;SDS011;72058;47.782;10.618;2023-08-31T06:11:39;5.63;;;5.03;;
82415;SDS011;72058;47.782;10.618;2023-08-31T06:14:05;4.45;;;4.00;;
82415;SDS011;72058;47.782;10.618;2023-08-31T06:16:30;4.78;;;4.22;;
82415;SDS011;72058;47.782;10.618;2023-08-31T06:18:56;5.85;;;5.25;;
82415;SDS011;72058;47.782;10.618;2023-08-31T06:21:21;5.30;;;4.50;;
82415;SDS011;72058;47.782;10.618;2023-08-31T06:23:46;8.25;;;4.63;;
82415;SDS011;72058;47.782;10.618;2023-08-31T06:26:12;5.50;;;4.90;;
82415;SDS011;72058;47.782;10.618;2023-08-31T06:28:37;7.90;;;5.47;;
82415;SDS011;72058;47.782;10.618;2023-08-31T06:31:03;7.23;;;4.87;;
82415;SDS011;72058;47.782;10.618;2023-08-31T06:33:29;5.28;;;4.68;;
82415;SDS011;72058;47.782;10.618;2023-08-31T06:35:54;5.35;;;4.60;;
82415;SDS011;72058;47.782;10.618;2023-08-31T06:38:19;5.07;;;4.37;;
82415;SDS011;72058;47.782;10.618;2023-08-31T06:40:46;5.35;;;4.20;;
82415;SDS011;72058;47.782;10.618;2023-08-31T06:43:12;7.80;;;4.40;;
82415;SDS011;72058;47.782;10.618;2023-08-31T06:45:37;7.53;;;4.80;;
82415;SDS011;72058;47.782;10.618;2023-08-31T06:48:03;4.43;;;3.72;;
82415;SDS011;72058;47.782;10.618;2023-08-31T06:50:29;5.88;;;3.53;;
82415;SDS011;72058;47.782;10.618;2023-08-31T06:52:54;6.45;;;4.32;;
82415;SDS011;72058;47.782;10.618;2023-08-31T06:55:20;4.10;;;3.60;;
82415;SDS011;72058;47.782;10.618;2023-08-31T06:57:45;5.30;;;3.83;;
82415;SDS011;72058;47.782;10.618;2023-08-31T07:00:11;3.95;;;3.55;;
82415;SDS011;72058;47.782;10.618;2023-08-31T07:02:39;3.83;;;3.35;;
82415;SDS011;72058;47.782;10.618;2023-08-31T07:05:05;4.63;;;3.03;;
82415;SDS011;72058;47.782;10.618;2023-08-31T07:07:31;3.50;;;3.20;;
82415;SDS011;72058;47.782;10.618;2023-08-31T07:09:56;3.70;;;3.22;;
82415;SDS011;72058;47.782;10.618;2023-08-31T07:12:22;3.90;;;3.27;;
82415;SDS011;72058;47.782;10.618;2023-08-31T07:14:47;4.20;;;2.93;;
82415;SDS011;72058;47.782;10.618;2023-08-31T07:17:12;3.33;;;3.03;;
82415;SDS011;72058;47.782;10.618;2023-08-31T07:19:38;3.10;;;2.80;;
82415;SDS011;72058;47.782;10.618;2023-08-31T07:22:04;3.13;;;2.60;;
82415;SDS011;72058;47.782;10.618;2023-08-31T07:24:31;3.83;;;2.95;;
82415;SDS011;72058;47.782;10.618;2023-08-31T07:26:56;2.85;;;2.55;;
82415;SDS011;72058;47.782;10.618;2023-08-31T07:29:22;3.80;;;2.92;;
82415;SDS011;72058;47.782;10.618;2023-08-31T07:31:47;3.40;;;2.90;;
82415;SDS011;72058;47.782;10.618;2023-08-31T07:34:12;2.77;;;2.57;;
82415;SDS011;72058;47.782;10.618;2023-08-31T07:36:38;3.38;;;2.55;;
82415;SDS011;72058;47.782;10.618;2023-08-31T07:39:04;2.78;;;2.58;;
82415;SDS011;72058;47.782;10.618;2023-08-31T07:41:30;3.47;;;2.40;;
82415;SDS011;72058;47.782;10.618;2023-08-31T07:43:55;2.90;;;2.35;;
82415;SDS011;72058;47.782;10.618;2023-08-31T07:46:21;3.45;;;2.55;;
82415;SDS011;72058;47.782;10.618;2023-08-31T07:48:47;3.38;;;2.33;;
82415;SDS011;72058;47.782;10.618;2023-08-31T07:51:14;2.33;;;2.10;;
82415;SDS011;72058;47.782;10.618;2023-08-31T07:53:39;2.55;;;2.35;;
82415;SDS011;72058;47.782;10.618;2023-08-31T07:56:04;3.58;;;2.65;;
82415;SDS011;72058;47.782;10.618;2023-08-31T07:58:30;3.58;;;2.58;;
82415;SDS011;72058;47.782;10.618;2023-08-31T08:00:55;4.05;;;2.60;;
82415;SDS011;72058;47.782;10.618;2023-08-31T08:03:21;3.00;;;2.22;;
82415;SDS011;72058;47.782;10.618;2023-08-31T08:05:48;5.93;;;2.85;;
82415;SDS011;72058;47.782;10.618;2023-08-31T08:08:13;3.25;;;2.30;;
82415;SDS011;72058;47.782;10.618;2023-08-31T08:10:39;3.28;;;2.30;;
82415;SDS011;72058;47.782;10.618;2023-08-31T08:13:04;3.42;;;2.63;;
82415;SDS011;72058;47.782;10.618;2023-08-31T08:15:30;3.50;;;2.50;;
82415;SDS011;72058;47.782;10.618;2023-08-31T08:17:55;3.03;;;2.58;;
82415;SDS011;72058;47.782;10.618;2023-08-31T08:22:47;3.20;;;2.33;;
82415;SDS011;72058;47.782;10.618;2023-08-31T08:25:14;4.05;;;2.70;;
82415;SDS011;72058;47.782;10.618;2023-08-31T08:27:39;3.05;;;2.45;;
82415;SDS011;72058;47.782;10.618;2023-08-31T08:30:05;2.90;;;2.47;;
82415;SDS011;72058;47.782;10.618;2023-08-31T08:32:32;3.13;;;2.42;;
82415;SDS011;72058;47.782;10.618;2023-08-31T08:34:58;3.85;;;2.50;;
82415;SDS011;72058;47.782;10.618;2023-08-31T08:37:23;3.28;;;2.45;;
82415;SDS011;72058;47.782;10.618;2023-08-31T08:39:50;3.35;;;2.60;;
82415;SDS011;72058;47.782;10.618;2023-08-31T08:42:16;2.78;;;2.17;;
82415;SDS011;72058;47.782;10.618;2023-08-31T08:44:43;3.42;;;2.75;;
82415;SDS011;72058;47.782;10.618;2023-08-31T08:47:09;3.00;;;2.42;;
82415;SDS011;72058;47.782;10.618;2023-08-31T08:49:36;2.60;;;2.40;;
82415;SDS011;72058;47.782;10.618;2023-08-31T08:52:02;2.33;;;2.08;;
82415;SDS011;72058;47.782;10.618;2023-08-31T08:54:28;3.13;;;2.13;;
82415;SDS011;72058;47.782;10.618;2023-08-31T08:56:53;3.50;;;2.58;;
82415;SDS011;72058;47.782;10.618;2023-08-31T08:59:19;2.45;;;2.13;;
82415;SDS011;72058;47.782;10.618;2023-08-31T09:01:45;2.67;;;2.42;;
82415;SDS011;72058;47.782;10.618;2023-08-31T09:04:11;3.47;;;2.60;;
82415;SDS011;72058;47.782;10.618;2023-08-31T09:06:36;3.38;;;2.63;;
82415;SDS011;72058;47.782;10.618;2023-08-31T09:09:01;2.53;;;2.00;;
82415;SDS011;72058;47.782;10.618;2023-08-31T09:11:28;2.90;;;2.60;;
82415;SDS011;72058;47.782;10.618;2023-08-31T09:13:54;2.92;;;2.45;;
82415;SDS011;72058;47.782;10.618;2023-08-31T09:16:23;2.90;;;2.45;;
82415;SDS011;72058;47.782;10.618;2023-08-31T09:18:50;4.72;;;2.65;;
82415;SDS011;72058;47.782;10.618;2023-08-31T09:21:15;4.93;;;2.53;;
82415;SDS011;72058;47.782;10.618;2023-08-31T09:23:41;4.90;;;2.80;;
82415;SDS011;72058;47.782;10.618;2023-08-31T09:26:06;3.53;;;2.72;;
82415;SDS011;72058;47.782;10.618;2023-08-31T09:28:31;3.10;;;2.22;;
82415;SDS011;72058;47.782;10.618;2023-08-31T09:31:07;3.70;;;2.67;;
82415;SDS011;72058;47.782;10.618;2023-08-31T09:33:34;5.82;;;3.00;;
82415;SDS011;72058;47.782;10.618;2023-08-31T09:36:05;4.20;;;2.95;;
82415;SDS011;72058;47.782;10.618;2023-08-31T09:38:32;4.57;;;2.75;;
82415;SDS011;72058;47.782;10.618;2023-08-31T09:41:06;3.63;;;2.80;;
82415;SDS011;72058;47.782;10.618;2023-08-31T09:43:32;2.92;;;2.63;;
82415;SDS011;72058;47.782;10.618;2023-08-31T09:45:57;3.25;;;2.85;;
82415;SDS011;72058;47.782;10.618;2023-08-31T09:48:24;3.95;;;2.70;;
82415;SDS011;72058;47.782;10.618;2023-08-31T09:50:51;3.88;;;2.58;;
82415;SDS011;72058;47.782;10.618;2023-08-31T09:53:17;3.63;;;2.40;;
82415;SDS011;72058;47.782;10.618;2023-08-31T09:55:46;3.03;;;2.20;;
82415;SDS011;72058;47.782;10.618;2023-08-31T09:58:13;3.22;;;2.58;;
82415;SDS011;72058;47.782;10.618;2023-08-31T10:00:45;5.07;;;2.40;;
82415;SDS011;72058;47.782;10.618;2023-08-31T10:03:11;4.13;;;2.72;;
82415;SDS011;72058;47.782;10.618;2023-08-31T10:05:40;4.13;;;2.65;;
82415;SDS011;72058;47.782;10.618;2023-08-31T10:08:07;3.53;;;2.47;;
82415;SDS011;72058;47.782;10.618;2023-08-31T10:10:33;3.08;;;2.40;;
82415;SDS011;72058;47.782;10.618;2023-08-31T10:12:59;3.80;;;2.58;;
82415;SDS011;72058;47.782;10.618;2023-08-31T10:17:55;4.07;;;2.58;;
82415;SDS011;72058;47.782;10.618;2023-08-31T10:20:20;3.17;;;2.65;;
82415;SDS011;72058;47.782;10.618;2023-08-31T10:22:46;2.75;;;2.30;;
82415;SDS011;72058;47.782;10.618;2023-08-31T10:25:11;4.28;;;2.53;;
82415;SDS011;72058;47.782;10.618;2023-08-31T10:27:43;3.58;;;2.67;;
82415;SDS011;72058;47.782;10.618;2023-08-31T10:30:33;5.60;;;3.10;;
82415;SDS011;72058;47.782;10.618;2023-08-31T10:35:40;3.58;;;2.25;;
82415;SDS011;72058;47.782;10.618;2023-08-31T10:41:38;5.10;;;2.50;;
82415;SDS011;72058;47.782;10.618;2023-08-31T10:51:41;3.30;;;2.70;;
82415;SDS011;72058;47.782;10.618;2023-08-31T10:59:25;4.07;;;2.80;;
82415;SDS011;72058;47.782;10.618;2023-08-31T11:02:06;3.30;;;2.47;;
82415;SDS011;72058;47.782;10.618;2023-08-31T11:04:38;4.45;;;2.97;;
82415;SDS011;72058;47.782;10.618;2023-08-31T11:07:18;4.20;;;2.83;;
82415;SDS011;72058;47.782;10.618;2023-08-31T11:09:45;4.88;;;3.10;;
82415;SDS011;72058;47.782;10.618;2023-08-31T11:12:12;3.13;;;2.42;;
82415;SDS011;72058;47.782;10.618;2023-08-31T11:14:38;4.68;;;2.72;;
82415;SDS011;72058;47.782;10.618;2023-08-31T11:17:04;5.93;;;3.65;;
82415;SDS011;72058;47.782;10.618;2023-08-31T11:22:00;3.50;;;2.60;;
82415;SDS011;72058;47.782;10.618;2023-08-31T11:24:27;3.88;;;2.58;;
82415;SDS011;72058;47.782;10.618;2023-08-31T11:26:53;4.15;;;2.67;;
82415;SDS011;72058;47.782;10.618;2023-08-31T11:29:20;3.13;;;2.40;;
82415;SDS011;72058;47.782;10.618;2023-08-31T11:31:45;5.85;;;3.38;;
82415;SDS011;72058;47.782;10.618;2023-08-31T11:34:12;2.97;;;2.50;;
82415;SDS011;72058;47.782;10.618;2023-08-31T11:36:39;4.70;;;2.97;;
82415;SDS011;72058;47.782;10.618;2023-08-31T11:39:06;4.00;;;2.90;;
82415;SDS011;72058;47.782;10.618;2023-08-31T11:41:32;3.88;;;3.03;;
82415;SDS011;72058;47.782;10.618;2023-08-31T11:44:00;4.10;;;3.00;;
82415;SDS011;72058;47.782;10.618;2023-08-31T11:46:26;4.18;;;3.03;;
82415;SDS011;72058;47.782;10.618;2023-08-31T11:48:52;5.25;;;3.15;;
82415;SDS011;72058;47.782;10.618;2023-08-31T11:51:17;6.38;;;3.33;;
82415;SDS011;72058;47.782;10.618;2023-08-31T11:53:44;4.60;;;3.00;;
82415;SDS011;72058;47.782;10.618;2023-08-31T11:56:09;4.63;;;2.50;;
82415;SDS011;72058;47.782;10.618;2023-08-31T11:58:40;3.37;;;2.60;;
82415;SDS011;72058;47.782;10.618;2023-08-31T12:01:07;4.75;;;2.80;;
82415;SDS011;72058;47.782;10.618;2023-08-31T12:03:42;3.30;;;2.60;;
82415;SDS011;72058;47.782;10.618;2023-08-31T12:06:14;5.20;;;2.67;;
82415;SDS011;72058;47.782;10.618;2023-08-31T12:08:41;4.07;;;2.78;;
82415;SDS011;72058;47.782;10.618;2023-08-31T12:11:07;5.03;;;2.85;;
82415;SDS011;72058;47.782;10.618;2023-08-31T12:13:32;4.88;;;2.65;;
82415;SDS011;72058;47.782;10.618;2023-08-31T12:15:58;4.25;;;2.60;;
82415;SDS011;72058;47.782;10.618;2023-08-31T12:18:26;4.22;;;2.67;;
82415;SDS011;72058;47.782;10.618;2023-08-31T12:20:55;3.38;;;2.60;;
82415;SDS011;72058;47.782;10.618;2023-08-31T12:23:22;3.78;;;2.47;;
82415;SDS011;72058;47.782;10.618;2023-08-31T12:25:48;4.38;;;2.60;;
82415;SDS011;72058;47.782;10.618;2023-08-31T12:28:14;2.80;;;2.30;;
82415;SDS011;72058;47.782;10.618;2023-08-31T12:30:46;5.45;;;2.70;;
82415;SDS011;72058;47.782;10.618;2023-08-31T12:33:13;4.93;;;2.65;;
82415;SDS011;72058;47.782;10.618;2023-08-31T12:35:38;6.07;;;2.90;;
82415;SDS011;72058;47.782;10.618;2023-08-31T12:38:04;4.45;;;2.85;;
82415;SDS011;72058;47.782;10.618;2023-08-31T12:40:30;4.78;;;3.22;;
82415;SDS011;72058;47.782;10.618;2023-08-31T12:42:55;4.50;;;3.28;;
82415;SDS011;72058;47.782;10.618;2023-08-31T12:45:20;4.70;;;2.90;;
82415;SDS011;72058;47.782;10.618;2023-08-31T12:47:46;3.88;;;3.00;;
82415;SDS011;72058;47.782;10.618;2023-08-31T12:52:38;4.03;;;3.00;;
82415;SDS011;72058;47.782;10.618;2023-08-31T12:55:09;4.15;;;3.10;;
82415;SDS011;72058;47.782;10.618;2023-08-31T12:57:37;4.68;;;2.97;;
82415;SDS011;72058;47.782;10.618;2023-08-31T13:00:03;4.15;;;2.78;;
82415;SDS011;72058;47.782;10.618;2023-08-31T13:02:34;3.33;;;2.42;;
82415;SDS011;72058;47.782;10.618;2023-08-31T13:04:59;5.15;;;3.13;;
82415;SDS011;72058;47.782;10.618;2023-08-31T13:07:25;3.97;;;2.87;;
82415;SDS011;72058;47.782;10.618;2023-08-31T13:09:50;4.77;;;3.20;;
82415;SDS011;72058;47.782;10.618;2023-08-31T13:12:15;4.00;;;2.92;;
82415;SDS011;72058;47.782;10.618;2023-08-31T13:14:43;5.10;;;2.90;;
82415;SDS011;72058;47.782;10.618;2023-08-31T13:17:09;3.63;;;2.92;;
82415;SDS011;72058;47.782;10.618;2023-08-31T13:19:34;5.77;;;3.40;;
82415;SDS011;72058;47.782;10.618;2023-08-31T13:21:59;5.78;;;3.13;;
82415;SDS011;72058;47.782;10.618;2023-08-31T13:24:25;4.97;;;3.22;;
82415;SDS011;72058;47.782;10.618;2023-08-31T13:26:50;4.68;;;3.28;;
82415;SDS011;72058;47.782;10.618;2023-08-31T13:29:16;4.95;;;3.60;;
82415;SDS011;72058;47.782;10.618;2023-08-31T13:31:41;4.28;;;2.90;;
82415;SDS011;72058;47.782;10.618;2023-08-31T13:34:07;3.63;;;3.05;;
82415;SDS011;72058;47.782;10.618;2023-08-31T13:36:33;4.65;;;2.70;;
82415;SDS011;72058;47.782;10.618;2023-08-31T13:38:59;4.60;;;2.97;;
82415;SDS011;72058;47.782;10.618;2023-08-31T13:41:24;5.88;;;3.42;;
82415;SDS011;72058;47.782;10.618;2023-08-31T13:43:50;5.00;;;2.75;;
82415;SDS011;72058;47.782;10.618;2023-08-31T13:46:15;5.30;;;2.75;;
82415;SDS011;72058;47.782;10.618;2023-08-31T13:48:40;3.78;;;2.83;;
82415;SDS011;72058;47.782;10.618;2023-08-31T13:51:06;4.90;;;2.60;;
82415;SDS011;72058;47.782;10.618;2023-08-31T13:53:32;4.22;;;2.88;;
82415;SDS011;72058;47.782;10.618;2023-08-31T13:55:58;4.10;;;2.90;;
82415;SDS011;72058;47.782;10.618;2023-08-31T13:58:23;7.57;;;3.30;;
82415;SDS011;72058;47.782;10.618;2023-08-31T14:00:48;4.72;;;3.05;;
82415;SDS011;72058;47.782;10.618;2023-08-31T14:03:14;5.23;;;3.20;;
82415;SDS011;72058;47.782;10.618;2023-08-31T14:05:47;4.32;;;3.25;;
82415;SDS011;72058;47.782;10.618;2023-08-31T14:08:13;5.72;;;3.00;;
82415;SDS011;72058;47.782;10.618;2023-08-31T14:10:39;4.65;;;3.03;;
82415;SDS011;72058;47.782;10.618;2023-08-31T14:13:05;5.18;;;3.67;;
82415;SDS011;72058;47.782;10.618;2023-08-31T14:15:30;4.23;;;3.30;;
82415;SDS011;72058;47.782;10.618;2023-08-31T14:17:56;4.15;;;3.00;;
82415;SDS011;72058;47.782;10.618;2023-08-31T14:20:21;3.95;;;3.22;;
82415;SDS011;72058;47.782;10.618;2023-08-31T14:22:47;3.63;;;2.70;;
82415;SDS011;72058;47.782;10.618;2023-08-31T14:25:13;5.38;;;2.80;;
82415;SDS011;72058;47.782;10.618;2023-08-31T14:27:39;6.13;;;2.95;;
82415;SDS011;72058;47.782;10.618;2023-08-31T14:30:06;5.43;;;2.60;;
82415;SDS011;72058;47.782;10.618;2023-08-31T14:32:31;4.22;;;2.83;;
82415;SDS011;72058;47.782;10.618;2023-08-31T14:34:57;6.63;;;3.20;;
82415;SDS011;72058;47.782;10.618;2023-08-31T14:37:22;2.92;;;2.63;;
82415;SDS011;72058;47.782;10.618;2023-08-31T14:39:48;3.20;;;2.83;;
82415;SDS011;72058;47.782;10.618;2023-08-31T14:42:13;5.40;;;2.78;;
82415;SDS011;72058;47.782;10.618;2023-08-31T14:47:05;7.05;;;3.05;;
82415;SDS011;72058;47.782;10.618;2023-08-31T14:49:31;6.83;;;3.00;;
82415;SDS011;72058;47.782;10.618;2023-08-31T14:51:56;3.08;;;2.58;;
82415;SDS011;72058;47.782;10.618;2023-08-31T14:54:21;4.60;;;3.13;;
82415;SDS011;72058;47.782;10.618;2023-08-31T14:56:48;4.25;;;2.40;;
82415;SDS011;72058;47.782;10.618;2023-08-31T14:59:14;3.95;;;3.30;;
82415;SDS011;72058;47.782;10.618;2023-08-31T15:01:39;4.85;;;3.00;;
82415;SDS011;72058;47.782;10.618;2023-08-31T15:04:05;6.00;;;2.83;;
82415;SDS011;72058;47.782;10.618;2023-08-31T15:06:30;5.75;;;3.53;;
82415;SDS011;72058;47.782;10.618;2023-08-31T15:08:58;5.03;;;2.70;;
82415;SDS011;72058;47.782;10.618;2023-08-31T15:11:25;3.20;;;2.22;;
82415;SDS011;72058;47.782;10.618;2023-08-31T15:13:51;3.50;;;2.80;;